sensor_id;sensor_type;location;lat;lon;timestamp;temperature;humidity
20526;DHT22;10421;49.142;9.232;2023-02-28T00:01:29;4.10;64.60
20526;DHT22;10421;49.142;9.232;2023-02-28T00:03:56;4.10;64.70
20526;DHT22;10421;49.142;9.232;2023-02-28T00:06:23;4.10;64.80
20526;DHT22;10421;49.142;9.232;2023-02-28T00:08:50;4.10;64.90
20526;DHT22;10421;49.142;9.232;2023-02-28T00:11:18;4.10;65.00
20526;DHT22;10421;49.142;9.232;2023-02-28T00:13:46;4.00;65.10
20526;DHT22;10421;49.142;9.232;2023-02-28T00:16:16;4.00;65.20
20526;DHT22;10421;49.142;9.232;2023-02-28T00:18:43;4.00;65.30
20526;DHT22;10421;49.142;9.232;2023-02-28T00:21:10;4.00;65.30
20526;DHT22;10421;49.142;9.232;2023-02-28T00:23:37;4.00;65.60
20526;DHT22;10421;49.142;9.232;2023-02-28T00:26:04;4.00;65.70
20526;DHT22;10421;49.142;9.232;2023-02-28T00:28:32;3.90;66.00
20526;DHT22;10421;49.142;9.232;2023-02-28T00:30:59;3.80;66.30
20526;DHT22;10421;49.142;9.232;2023-02-28T00:33:26;3.70;66.40
20526;DHT22;10421;49.142;9.232;2023-02-28T00:36:01;3.80;66.50
20526;DHT22;10421;49.142;9.232;2023-02-28T00:38:28;3.80;66.60
20526;DHT22;10421;49.142;9.232;2023-02-28T00:40:55;3.80;66.60
20526;DHT22;10421;49.142;9.232;2023-02-28T00:43:22;3.80;66.70
20526;DHT22;10421;49.142;9.232;2023-02-28T00:45:50;3.80;66.80
20526;DHT22;10421;49.142;9.232;2023-02-28T00:48:17;3.80;66.90
20526;DHT22;10421;49.142;9.232;2023-02-28T00:50:43;3.80;67.00
20526;DHT22;10421;49.142;9.232;2023-02-28T00:53:10;3.80;67.10
20526;DHT22;10421;49.142;9.232;2023-02-28T00:55:37;3.80;67.20
20526;DHT22;10421;49.142;9.232;2023-02-28T00:58:03;3.80;67.40
20526;DHT22;10421;49.142;9.232;2023-02-28T01:00:30;3.70;67.60
20526;DHT22;10421;49.142;9.232;2023-02-28T01:02:58;3.70;68.00
20526;DHT22;10421;49.142;9.232;2023-02-28T01:05:25;3.60;68.10
20526;DHT22;10421;49.142;9.232;2023-02-28T01:07:52;3.70;68.20
20526;DHT22;10421;49.142;9.232;2023-02-28T01:10:19;3.70;68.30
20526;DHT22;10421;49.142;9.232;2023-02-28T01:12:46;3.60;68.60
20526;DHT22;10421;49.142;9.232;2023-02-28T01:15:13;3.60;68.90
20526;DHT22;10421;49.142;9.232;2023-02-28T01:17:40;3.60;69.00
20526;DHT22;10421;49.142;9.232;2023-02-28T01:20:09;3.60;69.10
20526;DHT22;10421;49.142;9.232;2023-02-28T01:22:36;3.50;69.30
20526;DHT22;10421;49.142;9.232;2023-02-28T01:25:03;3.50;69.30
20526;DHT22;10421;49.142;9.232;2023-02-28T01:27:30;3.50;69.30
20526;DHT22;10421;49.142;9.232;2023-02-28T01:29:57;3.60;69.50
20526;DHT22;10421;49.142;9.232;2023-02-28T01:32:23;3.50;69.30
20526;DHT22;10421;49.142;9.232;2023-02-28T01:34:50;3.60;69.50
20526;DHT22;10421;49.142;9.232;2023-02-28T01:37:18;3.60;69.50
20526;DHT22;10421;49.142;9.232;2023-02-28T01:39:45;3.60;69.50
20526;DHT22;10421;49.142;9.232;2023-02-28T01:42:12;3.60;69.40
20526;DHT22;10421;49.142;9.232;2023-02-28T01:45:01;3.60;69.40
20526;DHT22;10421;49.142;9.232;2023-02-28T01:47:30;3.60;69.30
20526;DHT22;10421;49.142;9.232;2023-02-28T01:49:59;3.60;69.40
20526;DHT22;10421;49.142;9.232;2023-02-28T01:52:28;3.60;69.40
20526;DHT22;10421;49.142;9.232;2023-02-28T01:54:57;3.60;70.10
20526;DHT22;10421;49.142;9.232;2023-02-28T01:57:29;3.60;69.50
20526;DHT22;10421;49.142;9.232;2023-02-28T02:00:05;3.60;69.70
20526;DHT22;10421;49.142;9.232;2023-02-28T02:02:34;3.50;69.70
20526;DHT22;10421;49.142;9.232;2023-02-28T02:05:05;3.50;69.90
20526;DHT22;10421;49.142;9.232;2023-02-28T02:07:35;3.50;70.00
20526;DHT22;10421;49.142;9.232;2023-02-28T02:10:05;3.40;70.10
20526;DHT22;10421;49.142;9.232;2023-02-28T02:12:46;3.40;70.20
20526;DHT22;10421;49.142;9.232;2023-02-28T02:15:20;3.40;70.30
20526;DHT22;10421;49.142;9.232;2023-02-28T02:17:52;3.40;70.30
20526;DHT22;10421;49.142;9.232;2023-02-28T02:20:44;3.40;70.30
20526;DHT22;10421;49.142;9.232;2023-02-28T02:26:35;3.40;70.60
20526;DHT22;10421;49.142;9.232;2023-02-28T02:29:28;3.40;70.70
20526;DHT22;10421;49.142;9.232;2023-02-28T02:35:12;3.30;70.80
20526;DHT22;10421;49.142;9.232;2023-02-28T02:37:45;3.30;70.90
20526;DHT22;10421;49.142;9.232;2023-02-28T02:40:17;3.30;71.10
20526;DHT22;10421;49.142;9.232;2023-02-28T02:42:49;3.20;71.00
20526;DHT22;10421;49.142;9.232;2023-02-28T02:45:21;3.20;71.10
20526;DHT22;10421;49.142;9.232;2023-02-28T02:47:49;3.20;71.30
20526;DHT22;10421;49.142;9.232;2023-02-28T02:50:22;3.20;71.60
20526;DHT22;10421;49.142;9.232;2023-02-28T02:52:53;3.20;71.50
20526;DHT22;10421;49.142;9.232;2023-02-28T02:55:22;3.20;71.50
20526;DHT22;10421;49.142;9.232;2023-02-28T02:57:52;3.20;71.60
20526;DHT22;10421;49.142;9.232;2023-02-28T03:00:24;3.20;72.30
20526;DHT22;10421;49.142;9.232;2023-02-28T03:02:54;3.20;71.50
20526;DHT22;10421;49.142;9.232;2023-02-28T03:05:26;3.20;71.60
20526;DHT22;10421;49.142;9.232;2023-02-28T03:07:52;3.20;71.60
20526;DHT22;10421;49.142;9.232;2023-02-28T03:10:29;3.30;71.70
20526;DHT22;10421;49.142;9.232;2023-02-28T03:13:05;3.30;71.70
20526;DHT22;10421;49.142;9.232;2023-02-28T03:15:43;3.30;71.60
20526;DHT22;10421;49.142;9.232;2023-02-28T03:18:17;3.40;71.70
20526;DHT22;10421;49.142;9.232;2023-02-28T03:20:55;3.40;71.60
20526;DHT22;10421;49.142;9.232;2023-02-28T03:23:28;3.40;71.50
20526;DHT22;10421;49.142;9.232;2023-02-28T03:26:02;3.40;71.50
20526;DHT22;10421;49.142;9.232;2023-02-28T03:28:32;3.40;71.60
20526;DHT22;10421;49.142;9.232;2023-02-28T03:31:07;3.40;71.60
20526;DHT22;10421;49.142;9.232;2023-02-28T03:33:40;3.40;71.60
20526;DHT22;10421;49.142;9.232;2023-02-28T03:36:12;3.40;71.70
20526;DHT22;10421;49.142;9.232;2023-02-28T03:38:42;3.40;71.70
20526;DHT22;10421;49.142;9.232;2023-02-28T03:41:14;3.40;71.90
20526;DHT22;10421;49.142;9.232;2023-02-28T03:43:44;3.40;71.90
20526;DHT22;10421;49.142;9.232;2023-02-28T03:46:15;3.40;71.90
20526;DHT22;10421;49.142;9.232;2023-02-28T03:48:45;3.40;71.90
20526;DHT22;10421;49.142;9.232;2023-02-28T03:51:18;3.40;72.00
20526;DHT22;10421;49.142;9.232;2023-02-28T03:53:50;3.50;72.70
20526;DHT22;10421;49.142;9.232;2023-02-28T03:56:20;3.50;72.70
20526;DHT22;10421;49.142;9.232;2023-02-28T03:58:53;3.50;72.30
20526;DHT22;10421;49.142;9.232;2023-02-28T04:01:23;3.50;72.30
20526;DHT22;10421;49.142;9.232;2023-02-28T04:03:51;3.50;72.10
20526;DHT22;10421;49.142;9.232;2023-02-28T04:06:21;3.50;72.00
20526;DHT22;10421;49.142;9.232;2023-02-28T04:08:49;3.50;72.00
20526;DHT22;10421;49.142;9.232;2023-02-28T04:11:20;3.50;72.10
20526;DHT22;10421;49.142;9.232;2023-02-28T04:13:47;3.50;72.10
20526;DHT22;10421;49.142;9.232;2023-02-28T04:16:14;3.50;72.20
20526;DHT22;10421;49.142;9.232;2023-02-28T04:18:41;3.50;72.20
20526;DHT22;10421;49.142;9.232;2023-02-28T04:21:10;3.50;72.30
20526;DHT22;10421;49.142;9.232;2023-02-28T04:23:39;3.40;72.20
20526;DHT22;10421;49.142;9.232;2023-02-28T04:26:05;3.40;72.30
20526;DHT22;10421;49.142;9.232;2023-02-28T04:28:32;3.40;72.40
20526;DHT22;10421;49.142;9.232;2023-02-28T04:31:03;3.40;72.50
20526;DHT22;10421;49.142;9.232;2023-02-28T04:33:31;3.40;72.60
20526;DHT22;10421;49.142;9.232;2023-02-28T04:35:59;3.40;72.60
20526;DHT22;10421;49.142;9.232;2023-02-28T04:38:26;3.40;72.50
20526;DHT22;10421;49.142;9.232;2023-02-28T04:40:57;3.30;72.60
20526;DHT22;10421;49.142;9.232;2023-02-28T04:43:23;3.40;72.70
20526;DHT22;10421;49.142;9.232;2023-02-28T04:45:50;3.40;72.60
20526;DHT22;10421;49.142;9.232;2023-02-28T04:48:17;3.40;72.60
20526;DHT22;10421;49.142;9.232;2023-02-28T04:50:43;3.30;72.50
20526;DHT22;10421;49.142;9.232;2023-02-28T04:53:10;3.40;72.60
20526;DHT22;10421;49.142;9.232;2023-02-28T04:55:37;3.30;72.50
20526;DHT22;10421;49.142;9.232;2023-02-28T04:58:07;3.30;72.70
20526;DHT22;10421;49.142;9.232;2023-02-28T05:00:34;3.30;72.70
20526;DHT22;10421;49.142;9.232;2023-02-28T05:03:01;3.30;72.70
20526;DHT22;10421;49.142;9.232;2023-02-28T05:05:28;3.30;72.80
20526;DHT22;10421;49.142;9.232;2023-02-28T05:07:54;3.20;72.80
20526;DHT22;10421;49.142;9.232;2023-02-28T05:10:21;3.20;73.10
20526;DHT22;10421;49.142;9.232;2023-02-28T05:12:48;3.20;73.10
20526;DHT22;10421;49.142;9.232;2023-02-28T05:15:17;3.10;73.20
20526;DHT22;10421;49.142;9.232;2023-02-28T05:17:43;3.10;73.40
20526;DHT22;10421;49.142;9.232;2023-02-28T05:20:11;3.10;73.50
20526;DHT22;10421;49.142;9.232;2023-02-28T05:22:39;3.10;73.50
20526;DHT22;10421;49.142;9.232;2023-02-28T05:25:08;3.00;73.50
20526;DHT22;10421;49.142;9.232;2023-02-28T05:27:35;3.00;73.60
20526;DHT22;10421;49.142;9.232;2023-02-28T05:30:02;3.00;73.70
20526;DHT22;10421;49.142;9.232;2023-02-28T05:32:31;3.00;73.80
20526;DHT22;10421;49.142;9.232;2023-02-28T05:34:57;3.00;73.90
20526;DHT22;10421;49.142;9.232;2023-02-28T05:37:24;3.00;73.90
20526;DHT22;10421;49.142;9.232;2023-02-28T05:39:51;3.00;73.80
20526;DHT22;10421;49.142;9.232;2023-02-28T05:42:18;3.00;73.90
20526;DHT22;10421;49.142;9.232;2023-02-28T05:44:45;2.90;73.90
20526;DHT22;10421;49.142;9.232;2023-02-28T05:47:12;2.90;74.20
20526;DHT22;10421;49.142;9.232;2023-02-28T05:49:42;2.90;74.30
20526;DHT22;10421;49.142;9.232;2023-02-28T05:52:08;2.90;74.40
20526;DHT22;10421;49.142;9.232;2023-02-28T05:54:36;2.80;74.30
20526;DHT22;10421;49.142;9.232;2023-02-28T05:57:02;2.80;74.50
20526;DHT22;10421;49.142;9.232;2023-02-28T05:59:29;2.90;74.60
20526;DHT22;10421;49.142;9.232;2023-02-28T06:01:56;2.80;74.50
20526;DHT22;10421;49.142;9.232;2023-02-28T06:04:23;2.80;74.60
20526;DHT22;10421;49.142;9.232;2023-02-28T06:06:51;2.80;74.60
20526;DHT22;10421;49.142;9.232;2023-02-28T06:09:18;2.80;74.70
20526;DHT22;10421;49.142;9.232;2023-02-28T06:11:45;2.80;74.70
20526;DHT22;10421;49.142;9.232;2023-02-28T06:14:15;2.90;74.90
20526;DHT22;10421;49.142;9.232;2023-02-28T06:16:42;2.90;74.60
20526;DHT22;10421;49.142;9.232;2023-02-28T06:19:10;3.00;74.70
20526;DHT22;10421;49.142;9.232;2023-02-28T06:21:37;3.00;74.70
20526;DHT22;10421;49.142;9.232;2023-02-28T06:24:05;3.00;74.60
20526;DHT22;10421;49.142;9.232;2023-02-28T06:26:32;3.00;74.50
20526;DHT22;10421;49.142;9.232;2023-02-28T06:28:59;3.00;74.60
20526;DHT22;10421;49.142;9.232;2023-02-28T06:31:27;3.00;74.50
20526;DHT22;10421;49.142;9.232;2023-02-28T06:33:54;3.00;74.50
20526;DHT22;10421;49.142;9.232;2023-02-28T06:36:21;3.10;74.60
20526;DHT22;10421;49.142;9.232;2023-02-28T06:38:48;3.10;74.60
20526;DHT22;10421;49.142;9.232;2023-02-28T06:41:21;3.10;74.60
20526;DHT22;10421;49.142;9.232;2023-02-28T06:43:48;3.10;74.60
20526;DHT22;10421;49.142;9.232;2023-02-28T06:46:15;3.10;75.20
20526;DHT22;10421;49.142;9.232;2023-02-28T06:48:43;3.10;74.40
20526;DHT22;10421;49.142;9.232;2023-02-28T06:51:12;3.20;74.40
20526;DHT22;10421;49.142;9.232;2023-02-28T06:53:39;3.20;74.40
20526;DHT22;10421;49.142;9.232;2023-02-28T06:56:08;3.20;74.40
20526;DHT22;10421;49.142;9.232;2023-02-28T06:58:37;3.30;74.40
20526;DHT22;10421;49.142;9.232;2023-02-28T07:01:04;3.30;74.30
20526;DHT22;10421;49.142;9.232;2023-02-28T07:03:32;3.30;74.20
20526;DHT22;10421;49.142;9.232;2023-02-28T07:05:59;3.40;74.20
20526;DHT22;10421;49.142;9.232;2023-02-28T07:08:26;3.50;74.30
20526;DHT22;10421;49.142;9.232;2023-02-28T07:10:53;3.50;74.40
20526;DHT22;10421;49.142;9.232;2023-02-28T07:13:20;3.60;74.30
20526;DHT22;10421;49.142;9.232;2023-02-28T07:15:54;3.70;74.10
20526;DHT22;10421;49.142;9.232;2023-02-28T07:18:21;3.80;73.80
20526;DHT22;10421;49.142;9.232;2023-02-28T07:20:48;3.90;73.80
20526;DHT22;10421;49.142;9.232;2023-02-28T07:23:15;4.00;73.70
20526;DHT22;10421;49.142;9.232;2023-02-28T07:25:41;4.20;73.50
20526;DHT22;10421;49.142;9.232;2023-02-28T07:28:09;4.20;72.80
20526;DHT22;10421;49.142;9.232;2023-02-28T07:30:35;4.30;72.60
20526;DHT22;10421;49.142;9.232;2023-02-28T07:33:03;4.30;72.00
20526;DHT22;10421;49.142;9.232;2023-02-28T07:35:30;4.30;72.00
20526;DHT22;10421;49.142;9.232;2023-02-28T07:37:57;4.40;72.00
20526;DHT22;10421;49.142;9.232;2023-02-28T07:40:25;4.50;71.80
20526;DHT22;10421;49.142;9.232;2023-02-28T07:42:52;4.50;71.50
20526;DHT22;10421;49.142;9.232;2023-02-28T07:45:20;4.50;71.30
20526;DHT22;10421;49.142;9.232;2023-02-28T07:47:47;4.60;71.30
20526;DHT22;10421;49.142;9.232;2023-02-28T07:50:16;4.60;71.40
20526;DHT22;10421;49.142;9.232;2023-02-28T07:52:42;4.70;71.10
20526;DHT22;10421;49.142;9.232;2023-02-28T07:55:10;4.70;71.00
20526;DHT22;10421;49.142;9.232;2023-02-28T07:57:37;4.80;70.60
20526;DHT22;10421;49.142;9.232;2023-02-28T08:00:04;4.70;70.10
20526;DHT22;10421;49.142;9.232;2023-02-28T08:02:32;4.70;70.20
20526;DHT22;10421;49.142;9.232;2023-02-28T08:05:00;4.60;70.10
20526;DHT22;10421;49.142;9.232;2023-02-28T08:07:28;4.70;70.40
20526;DHT22;10421;49.142;9.232;2023-02-28T08:09:55;4.70;70.40
20526;DHT22;10421;49.142;9.232;2023-02-28T08:12:22;4.60;70.20
20526;DHT22;10421;49.142;9.232;2023-02-28T08:14:48;4.70;70.30
20526;DHT22;10421;49.142;9.232;2023-02-28T08:17:15;4.80;70.40
20526;DHT22;10421;49.142;9.232;2023-02-28T08:19:42;4.90;70.30
20526;DHT22;10421;49.142;9.232;2023-02-28T08:22:11;5.00;70.00
20526;DHT22;10421;49.142;9.232;2023-02-28T08:24:40;4.90;69.50
20526;DHT22;10421;49.142;9.232;2023-02-28T08:27:08;5.00;69.70
20526;DHT22;10421;49.142;9.232;2023-02-28T08:29:36;5.10;69.80
20526;DHT22;10421;49.142;9.232;2023-02-28T08:32:04;5.10;70.10
20526;DHT22;10421;49.142;9.232;2023-02-28T08:34:30;5.20;69.10
20526;DHT22;10421;49.142;9.232;2023-02-28T08:36:57;5.20;69.20
20526;DHT22;10421;49.142;9.232;2023-02-28T08:39:24;5.20;68.70
20526;DHT22;10421;49.142;9.232;2023-02-28T08:41:52;5.30;68.80
20526;DHT22;10421;49.142;9.232;2023-02-28T08:44:19;5.30;68.70
20526;DHT22;10421;49.142;9.232;2023-02-28T08:46:46;5.30;68.10
20526;DHT22;10421;49.142;9.232;2023-02-28T08:49:12;5.40;68.00
20526;DHT22;10421;49.142;9.232;2023-02-28T08:51:39;5.40;67.90
20526;DHT22;10421;49.142;9.232;2023-02-28T08:54:07;5.50;68.00
20526;DHT22;10421;49.142;9.232;2023-02-28T08:56:34;5.60;67.70
20526;DHT22;10421;49.142;9.232;2023-02-28T08:59:03;5.70;67.50
20526;DHT22;10421;49.142;9.232;2023-02-28T09:01:30;5.90;67.40
20526;DHT22;10421;49.142;9.232;2023-02-28T09:03:58;6.10;66.90
20526;DHT22;10421;49.142;9.232;2023-02-28T09:06:31;6.20;66.50
20526;DHT22;10421;49.142;9.232;2023-02-28T09:09:01;6.30;66.10
20526;DHT22;10421;49.142;9.232;2023-02-28T09:11:29;6.40;65.60
20526;DHT22;10421;49.142;9.232;2023-02-28T09:13:57;6.50;65.40
20526;DHT22;10421;49.142;9.232;2023-02-28T09:16:26;6.60;65.40
20526;DHT22;10421;49.142;9.232;2023-02-28T09:18:52;6.70;65.20
20526;DHT22;10421;49.142;9.232;2023-02-28T09:21:19;6.80;64.80
20526;DHT22;10421;49.142;9.232;2023-02-28T09:23:48;7.00;64.40
20526;DHT22;10421;49.142;9.232;2023-02-28T09:26:17;7.10;63.30
20526;DHT22;10421;49.142;9.232;2023-02-28T09:28:44;7.20;63.20
20526;DHT22;10421;49.142;9.232;2023-02-28T09:31:13;7.30;63.10
20526;DHT22;10421;49.142;9.232;2023-02-28T09:33:41;7.50;62.60
20526;DHT22;10421;49.142;9.232;2023-02-28T09:36:08;7.60;61.50
20526;DHT22;10421;49.142;9.232;2023-02-28T09:38:35;7.70;61.20
20526;DHT22;10421;49.142;9.232;2023-02-28T09:41:10;7.80;60.90
20526;DHT22;10421;49.142;9.232;2023-02-28T09:43:40;7.90;60.70
20526;DHT22;10421;49.142;9.232;2023-02-28T09:46:24;8.00;60.30
20526;DHT22;10421;49.142;9.232;2023-02-28T09:48:54;8.10;59.30
20526;DHT22;10421;49.142;9.232;2023-02-28T09:51:37;8.10;59.00
20526;DHT22;10421;49.142;9.232;2023-02-28T09:54:05;8.10;59.00
20526;DHT22;10421;49.142;9.232;2023-02-28T09:56:37;8.30;59.10
20526;DHT22;10421;49.142;9.232;2023-02-28T09:59:13;8.40;58.70
20526;DHT22;10421;49.142;9.232;2023-02-28T10:01:51;8.50;58.00
20526;DHT22;10421;49.142;9.232;2023-02-28T10:04:35;8.50;57.50
20526;DHT22;10421;49.142;9.232;2023-02-28T10:07:11;8.60;57.60
20526;DHT22;10421;49.142;9.232;2023-02-28T10:09:49;8.60;57.60
20526;DHT22;10421;49.142;9.232;2023-02-28T10:12:20;8.60;57.00
20526;DHT22;10421;49.142;9.232;2023-02-28T10:14:50;8.70;57.40
20526;DHT22;10421;49.142;9.232;2023-02-28T10:17:22;8.80;57.20
20526;DHT22;10421;49.142;9.232;2023-02-28T10:19:58;8.90;56.60
20526;DHT22;10421;49.142;9.232;2023-02-28T10:22:38;9.00;56.20
20526;DHT22;10421;49.142;9.232;2023-02-28T10:25:17;9.10;56.20
20526;DHT22;10421;49.142;9.232;2023-02-28T10:27:44;9.00;55.90
20526;DHT22;10421;49.142;9.232;2023-02-28T10:30:12;8.90;56.00
20526;DHT22;10421;49.142;9.232;2023-02-28T10:32:40;8.90;56.20
20526;DHT22;10421;49.142;9.232;2023-02-28T10:35:17;8.90;56.20
20526;DHT22;10421;49.142;9.232;2023-02-28T10:37:48;9.00;56.10
20526;DHT22;10421;49.142;9.232;2023-02-28T10:40:28;8.90;55.90
20526;DHT22;10421;49.142;9.232;2023-02-28T10:42:57;8.90;56.10
20526;DHT22;10421;49.142;9.232;2023-02-28T10:45:25;8.90;56.00
20526;DHT22;10421;49.142;9.232;2023-02-28T10:47:55;8.90;56.80
20526;DHT22;10421;49.142;9.232;2023-02-28T10:50:31;9.00;56.00
20526;DHT22;10421;49.142;9.232;2023-02-28T10:53:15;9.10;55.50
20526;DHT22;10421;49.142;9.232;2023-02-28T10:55:43;9.20;55.40
20526;DHT22;10421;49.142;9.232;2023-02-28T10:58:23;9.50;55.40
20526;DHT22;10421;49.142;9.232;2023-02-28T11:00:51;9.50;54.80
20526;DHT22;10421;49.142;9.232;2023-02-28T11:03:29;9.50;54.50
20526;DHT22;10421;49.142;9.232;2023-02-28T11:05:58;9.40;55.00
20526;DHT22;10421;49.142;9.232;2023-02-28T11:08:30;9.40;54.90
20526;DHT22;10421;49.142;9.232;2023-02-28T11:11:00;9.50;55.20
20526;DHT22;10421;49.142;9.232;2023-02-28T11:13:32;9.60;54.90
20526;DHT22;10421;49.142;9.232;2023-02-28T11:16:03;9.70;53.90
20526;DHT22;10421;49.142;9.232;2023-02-28T11:18:38;9.80;54.10
20526;DHT22;10421;49.142;9.232;2023-02-28T11:21:07;9.80;53.70
20526;DHT22;10421;49.142;9.232;2023-02-28T11:23:37;9.80;53.80
20526;DHT22;10421;49.142;9.232;2023-02-28T11:26:06;9.70;53.50
20526;DHT22;10421;49.142;9.232;2023-02-28T11:28:38;9.70;53.70
20526;DHT22;10421;49.142;9.232;2023-02-28T11:31:17;9.70;54.10
20526;DHT22;10421;49.142;9.232;2023-02-28T11:33:46;9.80;54.20
20526;DHT22;10421;49.142;9.232;2023-02-28T11:36:19;9.90;54.00
20526;DHT22;10421;49.142;9.232;2023-02-28T11:38:51;10.00;53.00
20526;DHT22;10421;49.142;9.232;2023-02-28T11:41:34;10.00;53.00
20526;DHT22;10421;49.142;9.232;2023-02-28T11:44:19;9.90;53.50
20526;DHT22;10421;49.142;9.232;2023-02-28T11:46:50;9.70;53.60
20526;DHT22;10421;49.142;9.232;2023-02-28T11:49:30;9.80;54.00
20526;DHT22;10421;49.142;9.232;2023-02-28T11:52:10;9.90;54.20
20526;DHT22;10421;49.142;9.232;2023-02-28T11:55:04;10.00;53.00
20526;DHT22;10421;49.142;9.232;2023-02-28T11:57:49;10.00;53.10
20526;DHT22;10421;49.142;9.232;2023-02-28T12:03:22;10.40;53.20
20526;DHT22;10421;49.142;9.232;2023-02-28T12:06:00;10.70;52.40
20526;DHT22;10421;49.142;9.232;2023-02-28T12:08:44;10.80;51.00
20526;DHT22;10421;49.142;9.232;2023-02-28T12:11:19;10.90;50.50
20526;DHT22;10421;49.142;9.232;2023-02-28T12:14:14;10.90;50.10
20526;DHT22;10421;49.142;9.232;2023-02-28T12:16:54;10.80;50.20
20526;DHT22;10421;49.142;9.232;2023-02-28T12:19:27;10.80;50.30
20526;DHT22;10421;49.142;9.232;2023-02-28T12:22:27;10.90;50.60
20526;DHT22;10421;49.142;9.232;2023-02-28T12:25:22;11.00;50.60
20526;DHT22;10421;49.142;9.232;2023-02-28T12:27:52;11.00;50.60
20526;DHT22;10421;49.142;9.232;2023-02-28T12:30:23;11.00;50.60
20526;DHT22;10421;49.142;9.232;2023-02-28T12:32:55;11.00;50.20
20526;DHT22;10421;49.142;9.232;2023-02-28T12:35:26;11.00;50.60
20526;DHT22;10421;49.142;9.232;2023-02-28T12:37:59;11.00;50.50
20526;DHT22;10421;49.142;9.232;2023-02-28T12:40:38;11.20;50.80
20526;DHT22;10421;49.142;9.232;2023-02-28T12:43:10;11.30;50.80
20526;DHT22;10421;49.142;9.232;2023-02-28T12:45:43;11.30;50.40
20526;DHT22;10421;49.142;9.232;2023-02-28T12:48:15;11.40;50.30
20526;DHT22;10421;49.142;9.232;2023-02-28T12:50:43;11.50;50.20
20526;DHT22;10421;49.142;9.232;2023-02-28T12:53:15;11.50;50.00
20526;DHT22;10421;49.142;9.232;2023-02-28T12:55:49;11.40;49.60
20526;DHT22;10421;49.142;9.232;2023-02-28T12:58:23;11.30;49.50
20526;DHT22;10421;49.142;9.232;2023-02-28T13:01:38;11.20;49.90
20526;DHT22;10421;49.142;9.232;2023-02-28T13:04:30;11.20;49.70
20526;DHT22;10421;49.142;9.232;2023-02-28T13:07:32;11.20;49.60
20526;DHT22;10421;49.142;9.232;2023-02-28T13:10:05;11.20;49.70
20526;DHT22;10421;49.142;9.232;2023-02-28T13:12:35;11.20;49.70
20526;DHT22;10421;49.142;9.232;2023-02-28T13:15:07;11.10;49.70
20526;DHT22;10421;49.142;9.232;2023-02-28T13:17:39;11.10;49.80
20526;DHT22;10421;49.142;9.232;2023-02-28T13:20:16;11.10;49.80
20526;DHT22;10421;49.142;9.232;2023-02-28T13:22:45;11.10;50.60
20526;DHT22;10421;49.142;9.232;2023-02-28T13:34:36;10.90;49.70
20526;DHT22;10421;49.142;9.232;2023-02-28T13:37:35;10.80;49.90
20526;DHT22;10421;49.142;9.232;2023-02-28T13:40:29;10.70;49.90
20526;DHT22;10421;49.142;9.232;2023-02-28T13:43:03;10.70;50.00
20526;DHT22;10421;49.142;9.232;2023-02-28T13:45:31;10.90;50.10
20526;DHT22;10421;49.142;9.232;2023-02-28T13:48:04;10.90;49.90
20526;DHT22;10421;49.142;9.232;2023-02-28T13:50:35;10.80;49.70
20526;DHT22;10421;49.142;9.232;2023-02-28T13:53:49;10.90;49.80
20526;DHT22;10421;49.142;9.232;2023-02-28T13:56:28;10.90;49.90
20526;DHT22;10421;49.142;9.232;2023-02-28T13:59:03;10.90;49.50
20526;DHT22;10421;49.142;9.232;2023-02-28T14:01:41;10.90;49.50
20526;DHT22;10421;49.142;9.232;2023-02-28T14:07:18;10.80;49.50
20526;DHT22;10421;49.142;9.232;2023-02-28T14:09:51;10.90;49.50
20526;DHT22;10421;49.142;9.232;2023-02-28T14:12:57;10.80;49.50
20526;DHT22;10421;49.142;9.232;2023-02-28T14:15:38;10.80;49.60
20526;DHT22;10421;49.142;9.232;2023-02-28T14:18:17;10.80;49.80
20526;DHT22;10421;49.142;9.232;2023-02-28T14:20:46;10.90;50.00
20526;DHT22;10421;49.142;9.232;2023-02-28T14:23:22;11.00;50.00
20526;DHT22;10421;49.142;9.232;2023-02-28T14:25:59;11.00;49.80
20526;DHT22;10421;49.142;9.232;2023-02-28T14:28:44;10.90;49.30
20526;DHT22;10421;49.142;9.232;2023-02-28T14:31:17;10.80;49.30
20526;DHT22;10421;49.142;9.232;2023-02-28T14:34:05;10.80;49.50
20526;DHT22;10421;49.142;9.232;2023-02-28T14:36:41;10.80;49.50
20526;DHT22;10421;49.142;9.232;2023-02-28T14:39:14;10.90;49.80
20526;DHT22;10421;49.142;9.232;2023-02-28T14:41:42;11.00;49.50
20526;DHT22;10421;49.142;9.232;2023-02-28T14:44:16;11.00;49.40
20526;DHT22;10421;49.142;9.232;2023-02-28T14:46:45;11.10;49.50
20526;DHT22;10421;49.142;9.232;2023-02-28T14:49:17;11.20;48.90
20526;DHT22;10421;49.142;9.232;2023-02-28T14:51:45;11.30;49.10
20526;DHT22;10421;49.142;9.232;2023-02-28T14:54:17;11.30;48.80
20526;DHT22;10421;49.142;9.232;2023-02-28T14:56:50;11.40;48.90
20526;DHT22;10421;49.142;9.232;2023-02-28T14:59:28;11.40;48.60
20526;DHT22;10421;49.142;9.232;2023-02-28T15:02:20;11.40;48.40
20526;DHT22;10421;49.142;9.232;2023-02-28T15:04:56;11.30;48.50
20526;DHT22;10421;49.142;9.232;2023-02-28T15:07:23;11.40;48.80
20526;DHT22;10421;49.142;9.232;2023-02-28T15:10:17;11.40;48.40
20526;DHT22;10421;49.142;9.232;2023-02-28T15:12:53;11.20;48.40
20526;DHT22;10421;49.142;9.232;2023-02-28T15:15:23;11.20;48.60
20526;DHT22;10421;49.142;9.232;2023-02-28T15:17:53;11.30;48.80
20526;DHT22;10421;49.142;9.232;2023-02-28T15:20:23;11.20;48.60
20526;DHT22;10421;49.142;9.232;2023-02-28T15:22:52;11.20;48.50
20526;DHT22;10421;49.142;9.232;2023-02-28T15:25:23;11.20;48.40
20526;DHT22;10421;49.142;9.232;2023-02-28T15:27:53;11.10;48.30
20526;DHT22;10421;49.142;9.232;2023-02-28T15:30:24;11.10;48.10
20526;DHT22;10421;49.142;9.232;2023-02-28T15:33:14;11.00;48.10
20526;DHT22;10421;49.142;9.232;2023-02-28T15:35:44;11.00;48.40
20526;DHT22;10421;49.142;9.232;2023-02-28T15:38:17;11.00;48.50
20526;DHT22;10421;49.142;9.232;2023-02-28T15:40:51;11.00;48.40
20526;DHT22;10421;49.142;9.232;2023-02-28T15:43:27;11.00;48.50
20526;DHT22;10421;49.142;9.232;2023-02-28T15:45:57;10.90;48.30
20526;DHT22;10421;49.142;9.232;2023-02-28T15:48:27;10.80;48.40
20526;DHT22;10421;49.142;9.232;2023-02-28T15:50:56;10.80;48.50
20526;DHT22;10421;49.142;9.232;2023-02-28T15:53:27;10.70;48.50
20526;DHT22;10421;49.142;9.232;2023-02-28T15:55:59;10.70;48.60
20526;DHT22;10421;49.142;9.232;2023-02-28T15:58:27;10.60;48.70
20526;DHT22;10421;49.142;9.232;2023-02-28T16:01:08;10.50;48.70
20526;DHT22;10421;49.142;9.232;2023-02-28T16:03:41;10.50;48.90
20526;DHT22;10421;49.142;9.232;2023-02-28T16:09:13;10.40;49.40
20526;DHT22;10421;49.142;9.232;2023-02-28T16:11:46;10.40;49.80
20526;DHT22;10421;49.142;9.232;2023-02-28T16:14:16;10.30;49.60
20526;DHT22;10421;49.142;9.232;2023-02-28T16:16:45;10.30;50.00
20526;DHT22;10421;49.142;9.232;2023-02-28T16:19:12;10.20;49.40
20526;DHT22;10421;49.142;9.232;2023-02-28T16:21:39;10.20;49.50
20526;DHT22;10421;49.142;9.232;2023-02-28T16:24:06;10.10;49.50
20526;DHT22;10421;49.142;9.232;2023-02-28T16:26:33;10.00;49.50
20526;DHT22;10421;49.142;9.232;2023-02-28T16:29:04;10.00;49.60
20526;DHT22;10421;49.142;9.232;2023-02-28T16:31:32;9.90;50.50
20526;DHT22;10421;49.142;9.232;2023-02-28T16:34:01;9.90;50.70